Time;durP1;ratioP1;P1;durP2;ratioP2;P2;SDS_P1;SDS_P2;PMS_P1;PMS_P2;Temp;Humidity;BMP_temperature;BMP_pressure;BME280_temperature;BME280_humidity;BME280_pressure;Samples;Min_cycle;Max_cycle;Signal;HPM_P1;HPM_P2
2021/04/24 00:00:24;;;;;;;4.87;1.93;;;9.00;59.40;;;;;;5004003;28;20450;-49
2021/04/24 00:02:53;;;;;;;3.43;1.80;;;9.00;59.50;;;;;;5003765;28;20461;-48
2021/04/24 00:05:22;;;;;;;3.50;2.00;;;8.90;59.60;;;;;;5003696;28;20490;-49
2021/04/24 00:07:51;;;;;;;8.93;2.83;;;8.80;59.70;;;;;;5004387;28;20534;-48
2021/04/24 00:10:18;;;;;;;3.57;2.10;;;8.80;59.60;;;;;;5003914;28;20453;-49
2021/04/24 00:12:44;;;;;;;3.60;1.90;;;8.80;60.00;;;;;;5004674;28;20469;-51
2021/04/24 00:15:15;;;;;;;2.50;1.80;;;8.90;59.80;;;;;;5002294;28;20447;-49
2021/04/24 00:17:42;;;;;;;3.80;1.70;;;8.90;59.40;;;;;;5003232;28;20770;-48
2021/04/24 00:20:12;;;;;;;3.10;2.13;;;8.90;59.70;;;;;;5006318;28;20446;-47
2021/04/24 00:22:38;;;;;;;2.80;1.87;;;8.90;60.10;;;;;;5004671;28;20438;-50
2021/04/24 00:25:06;;;;;;;6.90;3.23;;;9.00;60.60;;;;;;5007474;28;20512;-51
2021/04/24 00:27:32;;;;;;;4.13;1.90;;;9.00;61.90;;;;;;5006844;28;20456;-50
2021/04/24 00:29:59;;;;;;;7.07;1.50;;;9.00;63.40;;;;;;4994590;28;20465;-47
2021/04/24 00:32:25;;;;;;;7.60;3.57;;;8.90;64.90;;;;;;5001857;28;20872;-49
2021/04/24 00:34:52;;;;;;;3.50;1.90;;;8.80;65.70;;;;;;5006367;28;20441;-51
2021/04/24 00:37:19;;;;;;;6.30;2.50;;;8.80;67.00;;;;;;5006675;28;20442;-51
2021/04/24 00:39:45;;;;;;;10.73;2.70;;;8.70;68.20;;;;;;5006763;28;20453;-53
2021/04/24 00:42:12;;;;;;;3.20;2.10;;;8.60;69.70;;;;;;5006148;28;20458;-51
2021/04/24 00:44:45;;;;;;;4.20;1.80;;;8.70;70.80;;;;;;5005503;28;20477;-53
2021/04/24 00:47:12;;;;;;;2.53;1.87;;;8.60;71.90;;;;;;5006993;28;20430;-50
2021/04/24 00:49:38;;;;;;;4.93;2.30;;;8.60;73.40;;;;;;5006737;28;20852;-53
2021/04/24 00:52:05;;;;;;;4.50;2.17;;;8.60;74.70;;;;;;5006854;28;20435;-49
2021/04/24 00:54:32;;;;;;;5.50;2.97;;;8.60;76.40;;;;;;5007847;28;20826;-49
2021/04/24 00:56:58;;;;;;;15.53;3.67;;;8.60;78.00;;;;;;5007056;28;20450;-50
2021/04/24 00:59:25;;;;;;;7.00;2.40;;;8.50;81.70;;;;;;5005670;28;21066;-49
2021/04/24 01:01:52;;;;;;;5.63;2.13;;;8.50;85.10;;;;;;5005744;28;20438;-53
2021/04/24 01:04:18;;;;;;;4.50;2.73;;;8.50;88.60;;;;;;5006121;28;20583;-54
2021/04/24 01:06:45;;;;;;;6.70;2.87;;;8.50;91.20;;;;;;5002955;28;20540;-50
2021/04/24 01:09:11;;;;;;;5.37;2.33;;;8.40;93.60;;;;;;4994061;28;20927;-54
2021/04/24 01:11:38;;;;;;;4.43;2.03;;;8.40;95.10;;;;;;4996287;28;20524;-49
2021/04/24 01:14:05;;;;;;;4.97;2.20;;;8.40;96.60;;;;;;4995972;28;20434;-49
2021/04/24 01:16:31;;;;;;;10.30;2.63;;;8.30;98.10;;;;;;4995830;28;20819;-50
2021/04/24 01:18:57;;;;;;;4.67;2.93;;;8.30;99.90;;;;;;4996095;28;20478;-50
2021/04/24 01:21:26;;;;;;;5.53;4.00;;;8.30;99.90;;;;;;4995859;28;20457;-53
2021/04/24 01:23:54;;;;;;;5.60;2.63;;;8.30;99.90;;;;;;4995695;28;20958;-53
2021/04/24 01:26:21;;;;;;;6.67;3.10;;;8.20;99.90;;;;;;4996055;28;20446;-48
2021/04/24 01:28:48;;;;;;;4.90;2.43;;;8.30;99.90;;;;;;4996076;28;20892;-49
2021/04/24 01:31:15;;;;;;;16.40;4.10;;;8.30;99.90;;;;;;4992818;28;20548;-48
2021/04/24 01:33:41;;;;;;;8.37;2.77;;;8.20;99.90;;;;;;4995865;28;20505;-47
2021/04/24 01:36:07;;;;;;;9.87;4.47;;;8.20;99.90;;;;;;4995873;28;20764;-53
2021/04/24 01:38:34;;;;;;;8.90;3.10;;;8.20;99.90;;;;;;4993324;28;20442;-51
2021/04/24 01:41:01;;;;;;;7.30;3.40;;;8.20;99.90;;;;;;4995755;28;20485;-49
2021/04/24 01:43:29;;;;;;;3.60;2.60;;;8.10;99.90;;;;;;4995509;28;20482;-48
2021/04/24 01:45:55;;;;;;;7.87;3.00;;;8.00;99.90;;;;;;4993039;28;20450;-53
2021/04/24 01:48:21;;;;;;;7.80;2.67;;;7.90;99.90;;;;;;4995410;28;20780;-50
2021/04/24 01:50:48;;;;;;;5.80;2.57;;;8.00;99.90;;;;;;4995535;28;20434;-52
2021/04/24 01:53:18;;;;;;;7.40;2.90;;;7.90;99.90;;;;;;4992889;28;20463;-53
2021/04/24 01:55:46;;;;;;;10.07;3.60;;;7.80;99.90;;;;;;4995657;28;20820;-55
2021/04/24 01:58:17;;;;;;;5.97;2.97;;;7.80;99.90;;;;;;4995200;28;20449;-46
2021/04/24 02:00:47;;;;;;;10.83;3.40;;;7.70;99.90;;;;;;4995272;28;20465;-46
2021/04/24 02:03:14;;;;;;;5.97;3.30;;;7.70;99.90;;;;;;4990072;28;20442;-53
2021/04/24 02:05:42;;;;;;;6.07;2.77;;;7.60;99.90;;;;;;4995400;28;20473;-54
2021/04/24 02:08:11;;;;;;;20.33;4.40;;;7.60;99.90;;;;;;4995324;28;20446;-51
2021/04/24 02:10:38;;;;;;;5.57;2.87;;;7.60;99.90;;;;;;4995384;28;20449;-51
2021/04/24 02:13:07;;;;;;;5.63;3.53;;;7.60;99.90;;;;;;4995478;28;20482;-51
2021/04/24 02:15:34;;;;;;;13.87;3.27;;;7.50;99.90;;;;;;4995066;28;20907;-49
2021/04/24 02:18:00;;;;;;;8.60;4.20;;;7.50;99.90;;;;;;4995490;28;20524;-48
2021/04/24 02:20:27;;;;;;;6.33;3.47;;;7.50;99.90;;;;;;4995517;28;20454;-52
2021/04/24 02:22:54;;;;;;;8.67;2.77;;;7.40;99.90;;;;;;4995176;28;20513;-52
2021/04/24 02:25:21;;;;;;;8.00;3.27;;;7.40;99.90;;;;;;4995315;28;20540;-50
2021/04/24 02:27:48;;;;;;;6.63;2.93;;;7.40;99.90;;;;;;4995302;28;21048;-54
2021/04/24 02:30:17;;;;;;;7.50;3.03;;;7.40;99.90;;;;;;4995242;28;20469;-48
2021/04/24 02:32:44;;;;;;;10.10;3.60;;;7.40;99.90;;;;;;4995667;28;20450;-48
2021/04/24 02:35:13;;;;;;;8.40;3.27;;;7.40;99.90;;;;;;4994962;28;20516;-53
2021/04/24 02:37:39;;;;;;;7.00;3.67;;;7.30;99.90;;;;;;4995038;28;20989;-45
2021/04/24 02:40:07;;;;;;;15.00;4.13;;;7.30;99.90;;;;;;4994800;28;20446;-57
2021/04/24 02:42:34;;;;;;;10.87;3.33;;;7.30;99.90;;;;;;4994602;28;20524;-50
2021/04/24 02:45:05;;;;;;;10.87;4.20;;;7.30;99.90;;;;;;4994734;28;20508;-53
2021/04/24 02:47:32;;;;;;;8.20;3.80;;;7.30;99.90;;;;;;4994989;28;20523;-55
2021/04/24 02:49:59;;;;;;;7.47;4.23;;;7.30;99.90;;;;;;4995019;28;20748;-53
2021/04/24 02:52:26;;;;;;;5.77;3.20;;;7.30;99.90;;;;;;4994740;28;20461;-52
2021/04/24 02:54:53;;;;;;;8.77;4.23;;;7.30;99.90;;;;;;4994987;28;20499;-48
2021/04/24 02:57:19;;;;;;;5.43;3.60;;;7.20;99.90;;;;;;4994648;28;20954;-53
2021/04/24 02:59:46;;;;;;;6.90;3.00;;;7.20;99.90;;;;;;4994847;28;20446;-49
2021/04/24 03:02:12;;;;;;;7.60;4.23;;;7.20;99.90;;;;;;4994930;28;20461;-47
2021/04/24 03:04:38;;;;;;;6.93;2.63;;;7.10;99.90;;;;;;4994767;28;20486;-52
2021/04/24 03:07:05;;;;;;;13.43;3.70;;;7.00;99.90;;;;;;4994855;28;20458;-53
2021/04/24 03:09:31;;;;;;;9.90;4.03;;;7.00;99.90;;;;;;4998686;28;20433;-53
2021/04/24 03:11:58;;;;;;;8.83;3.53;;;7.00;99.90;;;;;;4997706;28;20442;-54
2021/04/24 03:14:27;;;;;;;11.90;3.77;;;7.00;99.90;;;;;;4997852;28;20451;-52
2021/04/24 03:16:55;;;;;;;9.00;4.60;;;7.10;99.90;;;;;;4997739;28;20446;-53
2021/04/24 03:19:21;;;;;;;10.83;5.03;;;7.10;99.90;;;;;;4997539;28;20478;-53
2021/04/24 03:21:47;;;;;;;10.33;4.67;;;7.10;99.90;;;;;;4997665;28;20438;-53
2021/04/24 03:24:14;;;;;;;7.73;4.87;;;7.00;99.90;;;;;;4997988;28;20487;-49
2021/04/24 03:26:41;;;;;;;7.67;4.80;;;7.00;99.90;;;;;;4997493;28;20506;-47
2021/04/24 03:29:07;;;;;;;8.60;5.90;;;7.00;99.90;;;;;;4998065;28;20447;-51
2021/04/24 03:31:33;;;;;;;10.37;4.40;;;7.00;99.90;;;;;;4997937;28;20447;-53
2021/04/24 03:34:00;;;;;;;8.93;4.23;;;6.90;99.90;;;;;;4998124;28;20479;-55
2021/04/24 03:36:26;;;;;;;6.43;3.73;;;6.90;99.90;;;;;;4997867;28;20446;-55
2021/04/24 03:38:53;;;;;;;18.23;4.67;;;6.90;99.90;;;;;;4997318;28;20447;-50
2021/04/24 03:41:20;;;;;;;16.10;4.70;;;6.90;99.90;;;;;;4996951;28;20451;-51
2021/04/24 03:43:47;;;;;;;7.33;4.53;;;6.90;99.90;;;;;;4997147;28;20474;-49
2021/04/24 03:46:16;;;;;;;11.40;3.70;;;6.90;99.90;;;;;;4997515;28;20494;-51
2021/04/24 03:48:42;;;;;;;11.77;3.63;;;6.90;99.90;;;;;;4996798;28;20541;-49
2021/04/24 03:51:08;;;;;;;8.00;3.50;;;6.80;99.90;;;;;;4997392;28;20454;-51
2021/04/24 03:53:34;;;;;;;16.53;4.57;;;6.80;99.90;;;;;;4999251;28;20434;-49
2021/04/24 03:56:01;;;;;;;8.43;4.60;;;6.70;99.90;;;;;;5002388;28;20430;-47
2021/04/24 03:58:29;;;;;;;9.53;3.50;;;6.80;99.90;;;;;;5002202;28;20510;-56
2021/04/24 04:00:57;;;;;;;7.90;4.40;;;6.70;99.90;;;;;;5002160;28;20469;-48
2021/04/24 04:03:23;;;;;;;14.17;4.93;;;6.70;99.90;;;;;;5002019;28;20465;-50
2021/04/24 04:05:50;;;;;;;10.80;4.53;;;6.70;99.90;;;;;;5002353;28;20517;-52
2021/04/24 04:08:17;;;;;;;5.53;3.63;;;6.60;99.90;;;;;;5000464;28;20451;-47
2021/04/24 04:10:45;;;;;;;11.80;4.13;;;6.60;99.90;;;;;;5000456;28;20459;-47
2021/04/24 04:13:13;;;;;;;11.33;4.30;;;6.60;99.90;;;;;;5000424;28;20443;-49
2021/04/24 04:18:17;;;;;;;12.47;4.87;;;6.60;99.90;;;;;;5272842;23;20504;-47
2021/04/24 04:20:45;;;;;;;10.10;3.87;;;6.60;99.90;;;;;;5020513;28;20449;-48
2021/04/24 04:23:12;;;;;;;11.53;4.70;;;6.50;99.90;;;;;;5020811;28;20454;-49
2021/04/24 04:25:39;;;;;;;8.47;4.00;;;6.50;99.90;;;;;;5020286;28;20481;-45
2021/04/24 04:28:05;;;;;;;6.90;3.93;;;6.50;99.90;;;;;;5020684;28;20426;-53
2021/04/24 04:30:32;;;;;;;10.80;4.63;;;6.50;99.90;;;;;;5020486;28;20438;-53
2021/04/24 04:32:59;;;;;;;12.70;5.07;;;6.50;99.90;;;;;;5020519;28;20446;-49
2021/04/24 04:35:28;;;;;;;8.37;4.37;;;6.40;99.90;;;;;;5020591;28;20505;-52
2021/04/24 04:37:55;;;;;;;11.87;4.57;;;6.50;99.90;;;;;;5020557;28;20442;-53
2021/04/24 04:40:22;;;;;;;8.93;5.00;;;6.40;99.90;;;;;;5020352;28;20426;-53
2021/04/24 04:42:48;;;;;;;12.27;5.43;;;6.50;99.90;;;;;;5020421;28;20457;-53
2021/04/24 04:45:16;;;;;;;9.40;4.93;;;6.50;99.90;;;;;;5019982;28;20461;-52
2021/04/24 04:47:43;;;;;;;11.57;6.00;;;6.60;99.90;;;;;;5020914;28;20463;-51
2021/04/24 04:50:12;;;;;;;6.50;4.60;;;6.60;99.90;;;;;;5020440;28;20434;-50
2021/04/24 04:52:40;;;;;;;9.17;4.27;;;6.60;99.90;;;;;;5020566;28;20430;-51
2021/04/24 04:55:07;;;;;;;16.80;5.53;;;6.60;99.90;;;;;;5020960;28;20438;-50
2021/04/24 04:57:34;;;;;;;20.53;6.60;;;6.70;99.90;;;;;;5021081;28;20434;-55
2021/04/24 05:00:00;;;;;;;14.00;5.23;;;6.70;99.90;;;;;;5020984;28;20430;-56
2021/04/24 05:02:27;;;;;;;13.27;6.00;;;6.70;99.90;;;;;;5021123;28;20462;-56
2021/04/24 05:04:53;;;;;;;9.03;5.17;;;6.70;99.90;;;;;;5019813;28;20481;-55
2021/04/24 05:07:19;;;;;;;14.37;6.30;;;6.60;99.90;;;;;;5020935;28;20429;-46
2021/04/24 05:09:46;;;;;;;13.43;5.67;;;6.60;99.90;;;;;;5019541;28;20458;-45
2021/04/24 05:12:12;;;;;;;16.50;7.30;;;6.60;99.90;;;;;;5020226;28;20415;-47
2021/04/24 05:14:38;;;;;;;10.63;6.00;;;6.50;99.90;;;;;;5019902;28;20442;-46
2021/04/24 05:17:05;;;;;;;10.00;4.80;;;6.50;99.90;;;;;;5020281;28;20461;-46
2021/04/24 05:19:31;;;;;;;11.90;6.00;;;6.50;99.90;;;;;;5020840;28;20465;-46
2021/04/24 05:21:58;;;;;;;11.97;7.07;;;6.40;99.90;;;;;;5020654;28;20433;-46
2021/04/24 05:24:24;;;;;;;15.10;7.50;;;6.40;99.90;;;;;;5019282;28;20489;-52
2021/04/24 05:26:51;;;;;;;19.70;5.93;;;6.30;99.90;;;;;;5019399;28;20450;-50
2021/04/24 05:29:18;;;;;;;14.67;6.13;;;6.40;99.90;;;;;;5019372;28;20442;-55
2021/04/24 05:31:44;;;;;;;13.77;7.43;;;6.40;99.90;;;;;;5019195;28;20437;-50
2021/04/24 05:34:10;;;;;;;13.77;6.33;;;6.50;99.90;;;;;;5019336;28;20438;-51
2021/04/24 05:36:36;;;;;;;12.77;6.43;;;6.50;99.90;;;;;;5019773;28;20454;-49
2021/04/24 05:39:04;;;;;;;14.43;6.67;;;6.40;99.90;;;;;;5019010;28;20452;-49
2021/04/24 05:41:30;;;;;;;14.70;7.30;;;6.40;99.90;;;;;;5019472;28;20437;-46
2021/04/24 05:43:58;;;;;;;14.30;5.50;;;6.40;99.90;;;;;;5019362;28;20438;-51
2021/04/24 05:46:26;;;;;;;12.47;6.47;;;6.40;99.90;;;;;;5019667;28;20457;-52
2021/04/24 05:48:53;;;;;;;11.27;6.93;;;6.40;99.90;;;;;;5019270;28;20450;-50
2021/04/24 05:51:20;;;;;;;11.93;6.63;;;6.40;99.90;;;;;;5019322;28;20453;-63
2021/04/24 05:53:48;;;;;;;11.67;6.60;;;6.50;99.90;;;;;;5019941;28;20473;-46
2021/04/24 05:56:14;;;;;;;10.43;6.53;;;6.60;99.90;;;;;;5020236;28;20434;-51
2021/04/24 05:58:41;;;;;;;17.73;7.10;;;6.70;99.90;;;;;;5019947;28;20477;-48
2021/04/24 06:01:08;;;;;;;25.13;8.80;;;6.70;99.90;;;;;;5019877;28;20485;-52
2021/04/24 06:03:34;;;;;;;12.80;7.53;;;6.80;99.90;;;;;;5019568;28;20430;-54
2021/04/24 06:06:00;;;;;;;13.43;6.73;;;6.80;99.90;;;;;;5018776;28;20469;-53
2021/04/24 06:08:26;;;;;;;18.30;7.10;;;6.80;99.90;;;;;;5018796;28;20457;-54
2021/04/24 06:10:53;;;;;;;18.10;6.70;;;6.80;99.90;;;;;;5018725;28;20442;-52
2021/04/24 06:13:19;;;;;;;14.00;6.13;;;6.80;99.90;;;;;;5018940;28;20457;-55
2021/04/24 06:15:46;;;;;;;15.93;6.43;;;7.00;99.90;;;;;;5018460;28;20517;-53
2021/04/24 06:18:14;;;;;;;12.90;5.57;;;7.00;99.90;;;;;;5003248;28;20482;-48
2021/04/24 06:20:40;;;;;;;20.97;6.77;;;7.10;99.90;;;;;;4995346;28;20453;-49
2021/04/24 06:23:07;;;;;;;13.73;6.27;;;7.20;99.90;;;;;;4995463;28;20817;-51
2021/04/24 06:25:33;;;;;;;16.27;6.83;;;7.20;99.90;;;;;;4995067;28;20486;-48
2021/04/24 06:27:59;;;;;;;12.27;6.73;;;7.20;99.90;;;;;;4995404;28;20461;-53
2021/04/24 06:30:25;;;;;;;15.90;6.87;;;7.30;99.90;;;;;;4995127;28;20446;-46
2021/04/24 06:32:54;;;;;;;12.50;6.97;;;7.30;99.90;;;;;;4995158;28;20512;-54
2021/04/24 06:35:23;;;;;;;19.03;7.53;;;7.30;99.90;;;;;;4995083;28;20457;-50
2021/04/24 06:37:50;;;;;;;15.77;6.60;;;7.40;99.90;;;;;;4995080;28;20528;-48
2021/04/24 06:40:17;;;;;;;14.80;6.23;;;7.50;99.90;;;;;;4988068;28;20560;-46
2021/04/24 06:42:44;;;;;;;18.87;7.70;;;7.50;99.90;;;;;;4995249;28;20453;-55
2021/04/24 06:45:13;;;;;;;14.10;6.90;;;7.50;99.90;;;;;;4994738;28;20496;-52
2021/04/24 06:47:40;;;;;;;15.07;7.23;;;7.50;99.90;;;;;;4995001;28;20446;-49
2021/04/24 06:50:09;;;;;;;14.40;6.90;;;7.50;99.90;;;;;;4994854;28;20466;-53
2021/04/24 06:52:36;;;;;;;17.47;6.80;;;7.60;99.90;;;;;;4994701;28;20446;-45
2021/04/24 06:55:03;;;;;;;15.60;5.67;;;7.60;99.90;;;;;;4994839;28;20453;-51
2021/04/24 06:57:30;;;;;;;13.90;7.23;;;7.70;99.90;;;;;;4995088;28;20485;-48
2021/04/24 06:59:56;;;;;;;13.53;7.10;;;7.80;99.90;;;;;;4994761;28;20449;-48
2021/04/24 07:02:23;;;;;;;10.90;6.13;;;7.80;99.90;;;;;;4994829;28;20535;-51
2021/04/24 07:04:49;;;;;;;15.50;7.27;;;7.90;99.90;;;;;;4994521;28;20517;-49
2021/04/24 07:07:16;;;;;;;11.50;6.37;;;7.90;99.90;;;;;;4994529;28;20470;-46
2021/04/24 07:09:43;;;;;;;11.23;6.10;;;7.90;99.90;;;;;;4994427;28;20441;-53
2021/04/24 07:12:10;;;;;;;18.33;6.80;;;8.00;99.90;;;;;;4995184;28;20445;-50
2021/04/24 07:14:36;;;;;;;11.53;5.73;;;8.00;99.90;;;;;;4994392;28;20907;-51
2021/04/24 07:17:03;;;;;;;10.53;5.67;;;8.00;99.90;;;;;;4994466;28;20548;-51
2021/04/24 07:19:29;;;;;;;15.27;6.80;;;8.00;99.90;;;;;;4994599;28;20443;-51
2021/04/24 07:21:56;;;;;;;10.83;5.87;;;8.10;99.90;;;;;;4994592;28;20445;-50
2021/04/24 07:24:23;;;;;;;11.77;5.90;;;8.10;99.90;;;;;;4994676;28;20900;-46
2021/04/24 07:26:50;;;;;;;10.00;5.83;;;8.20;99.90;;;;;;4994322;28;20968;-52
2021/04/24 07:29:17;;;;;;;13.33;6.87;;;8.20;99.90;;;;;;4996971;28;20515;-49
2021/04/24 07:31:44;;;;;;;13.20;4.80;;;8.30;99.90;;;;;;4998040;28;20458;-51
2021/04/24 07:34:11;;;;;;;10.40;5.60;;;8.50;99.90;;;;;;4998527;28;20787;-50
2021/04/24 07:36:38;;;;;;;9.50;4.80;;;8.70;99.90;;;;;;4998177;28;20544;-51
2021/04/24 07:39:05;;;;;;;11.00;4.13;;;8.80;99.90;;;;;;4998146;28;20940;-54
2021/04/24 10:03:09;;;;;;;5.63;3.00;;;13.40;62.00;;;;;;5257721;23;20482;-52
2021/04/24 10:05:36;;;;;;;6.93;2.60;;;13.60;60.30;;;;;;5018873;28;20469;-52
2021/04/24 10:08:03;;;;;;;5.70;2.90;;;13.90;60.20;;;;;;5010412;28;20467;-51
2021/04/24 10:10:39;;;;;;;6.07;3.10;;;13.80;59.50;;;;;;5005215;28;20458;-53
2021/04/24 10:13:08;;;;;;;7.50;2.77;;;13.70;60.20;;;;;;5013517;28;20894;-52
2021/04/24 10:15:35;;;;;;;4.70;3.10;;;14.20;60.80;;;;;;4992320;28;20471;-51
2021/04/24 10:18:03;;;;;;;5.03;2.40;;;15.10;58.70;;;;;;4979857;28;20457;-50
2021/04/24 10:20:32;;;;;;;4.67;2.60;;;15.00;56.30;;;;;;4979927;28;20462;-52
2021/04/24 10:23:00;;;;;;;7.73;3.10;;;14.80;56.80;;;;;;4985518;28;20494;-49
2021/04/24 10:25:27;;;;;;;4.23;2.60;;;14.50;57.20;;;;;;5006007;28;20962;-48
2021/04/24 10:27:54;;;;;;;5.70;3.87;;;14.30;58.10;;;;;;4998118;28;20541;-46
2021/04/24 10:30:22;;;;;;;4.20;2.67;;;13.90;58.50;;;;;;4997877;28;20460;-46
2021/04/24 10:32:48;;;;;;;7.70;2.47;;;13.50;58.50;;;;;;4997931;28;20442;-48
2021/04/24 10:35:16;;;;;;;9.00;2.97;;;13.50;58.90;;;;;;4998171;28;20545;-46
2021/04/24 10:37:46;;;;;;;8.03;3.33;;;13.30;59.30;;;;;;4997877;28;20474;-47
2021/04/24 10:40:13;;;;;;;6.20;3.07;;;13.40;59.30;;;;;;4995131;28;20442;-50
2021/04/24 10:42:43;;;;;;;9.30;3.47;;;13.90;58.90;;;;;;4997872;28;20462;-46
2021/04/24 10:45:10;;;;;;;7.17;3.10;;;14.00;57.70;;;;;;4997381;28;20508;-49
2021/04/24 10:47:52;;;;;;;7.97;2.90;;;14.20;58.30;;;;;;4997870;28;20493;-50
2021/04/24 10:50:20;;;;;;;5.47;2.27;;;14.70;56.50;;;;;;4995575;28;20546;-49
2021/04/24 10:52:51;;;;;;;9.93;3.00;;;14.80;55.30;;;;;;4998119;28;20508;-47
2021/04/24 10:55:26;;;;;;;5.00;2.90;;;15.10;54.90;;;;;;4984336;28;20530;-48
2021/04/24 10:57:55;;;;;;;8.20;2.97;;;15.10;53.80;;;;;;4991783;28;20506;-53
2021/04/24 11:00:25;;;;;;;6.07;3.13;;;14.80;54.30;;;;;;4986179;28;20482;-50
2021/04/24 11:02:53;;;;;;;10.00;3.23;;;14.20;54.70;;;;;;4991511;28;20826;-48
2021/04/24 11:05:26;;;;;;;4.10;3.20;;;14.10;55.50;;;;;;4989970;28;20555;-45
2021/04/24 11:08:26;;;;;;;3.70;2.23;;;14.20;56.60;;;;;;4998190;28;20446;-48
2021/04/24 11:10:58;;;;;;;4.37;2.67;;;13.80;55.40;;;;;;4996942;28;20589;-46
2021/04/24 11:13:26;;;;;;;6.40;3.17;;;13.60;56.80;;;;;;4997815;28;21060;-48
2021/04/24 11:15:53;;;;;;;3.67;2.20;;;13.40;56.10;;;;;;4999465;28;20434;-47
2021/04/24 11:18:19;;;;;;;3.00;2.30;;;13.20;56.00;;;;;;4998590;28;20441;-50
2021/04/24 11:20:55;;;;;;;3.70;2.00;;;12.90;55.00;;;;;;4998453;28;20454;-47
2021/04/24 11:23:50;;;;;;;6.87;2.60;;;12.90;55.10;;;;;;4990374;28;20476;-48
2021/04/24 11:26:20;;;;;;;6.07;3.27;;;13.10;55.60;;;;;;5003845;28;20599;-48
2021/04/24 11:29:09;;;;;;;4.30;2.83;;;13.30;56.00;;;;;;5011606;28;20442;-48
2021/04/24 11:32:08;;;;;;;5.70;3.17;;;13.80;56.60;;;;;;5002489;28;20805;-47
2021/04/24 11:34:46;;;;;;;5.63;3.43;;;14.10;54.30;;;;;;4999294;28;20457;-47
2021/04/24 11:37:26;;;;;;;5.00;2.53;;;14.10;54.70;;;;;;4997326;28;20534;-51
2021/04/24 11:40:19;;;;;;;4.53;2.83;;;14.00;54.70;;;;;;4997296;28;20492;-50
2021/04/24 11:43:10;;;;;;;5.90;2.90;;;13.80;56.00;;;;;;4996948;28;20523;-48
2021/04/24 11:45:54;;;;;;;8.93;2.80;;;13.80;56.50;;;;;;4977868;28;20478;-52
2021/04/24 11:48:57;;;;;;;5.17;2.93;;;13.90;56.50;;;;;;4977748;28;20450;-51
2021/04/24 11:51:46;;;;;;;6.80;3.17;;;13.90;56.90;;;;;;4994413;28;20494;-51
2021/04/24 11:54:37;;;;;;;6.30;3.47;;;13.90;56.20;;;;;;4987237;28;20507;-52
2021/04/24 20:21:00;;;;;;;7.83;3.60;;;11.40;60.20;;;;;;5410722;23;20514;-52
2021/04/24 20:23:27;;;;;;;8.23;3.27;;;11.30;61.10;;;;;;5168199;23;20585;-48
2021/04/24 20:25:53;;;;;;;10.73;3.30;;;11.20;61.30;;;;;;4999039;28;20513;-48
2021/04/24 20:28:20;;;;;;;4.53;3.40;;;11.20;62.00;;;;;;4993662;28;20434;-51
2021/04/24 20:30:46;;;;;;;4.53;3.40;;;11.20;62.10;;;;;;4996132;28;20439;-53
2021/04/24 20:33:12;;;;;;;7.47;2.80;;;11.10;62.40;;;;;;4998958;28;20499;-52
2021/04/24 20:35:40;;;;;;;8.23;3.47;;;11.10;62.90;;;;;;5007807;28;20973;-52
2021/04/24 20:38:07;;;;;;;6.70;3.90;;;11.00;63.30;;;;;;5002098;28;20446;-49
2021/04/24 20:40:34;;;;;;;4.93;2.83;;;11.00;63.70;;;;;;5002832;28;20445;-50
2021/04/24 20:43:01;;;;;;;6.50;4.03;;;10.90;64.10;;;;;;5005657;28;20461;-57
2021/04/24 20:45:27;;;;;;;7.37;3.33;;;10.90;65.20;;;;;;4999579;28;20445;-53
2021/04/24 20:47:53;;;;;;;5.30;3.67;;;10.80;65.40;;;;;;5001726;28;20462;-49
2021/04/24 20:50:20;;;;;;;6.10;3.40;;;10.80;66.20;;;;;;4993178;28;20498;-48
2021/04/24 20:52:47;;;;;;;10.90;4.20;;;10.70;66.40;;;;;;4992873;28;20455;-49
2021/04/24 20:55:16;;;;;;;6.60;3.67;;;10.60;67.00;;;;;;4992556;28;20487;-51
2021/04/24 20:57:45;;;;;;;5.40;3.10;;;10.60;67.20;;;;;;4992284;28;20450;-52
2021/04/24 21:00:13;;;;;;;7.37;4.10;;;10.50;67.50;;;;;;5000210;28;20477;-55
2021/04/24 21:02:40;;;;;;;9.27;3.90;;;10.50;67.90;;;;;;4999507;28;20463;-50
2021/04/24 21:05:08;;;;;;;11.43;4.07;;;10.40;68.20;;;;;;4999761;28;20439;-52
2021/04/24 21:07:34;;;;;;;18.83;9.00;;;10.40;68.40;;;;;;4986674;28;20481;-54
2021/04/24 21:10:01;;;;;;;5.03;3.20;;;10.40;68.70;;;;;;4999095;28;20450;-50
2021/04/24 21:12:28;;;;;;;6.13;4.43;;;10.30;68.80;;;;;;5003130;28;20453;-52
2021/04/24 21:14:55;;;;;;;8.23;3.60;;;10.20;69.30;;;;;;4998972;28;20470;-48
2021/04/24 21:17:21;;;;;;;7.80;3.40;;;10.20;69.20;;;;;;5007838;28;20533;-53
2021/04/24 21:19:48;;;;;;;5.70;3.57;;;10.20;69.60;;;;;;5000530;28;20445;-53
2021/04/24 21:22:14;;;;;;;5.07;3.17;;;10.10;69.90;;;;;;4995107;28;20581;-54
2021/04/24 21:24:41;;;;;;;6.17;3.37;;;10.10;70.00;;;;;;4996550;28;20434;-53
2021/04/24 21:27:08;;;;;;;8.60;4.07;;;10.10;70.30;;;;;;4997505;28;20478;-52
2021/04/24 21:29:36;;;;;;;10.80;4.20;;;10.00;70.50;;;;;;4997055;28;20447;-50
2021/04/24 21:32:02;;;;;;;6.80;3.23;;;10.00;71.50;;;;;;4992187;28;20521;-53
2021/04/24 21:34:31;;;;;;;5.70;3.17;;;10.00;71.40;;;;;;4994955;28;20439;-48
2021/04/24 21:36:58;;;;;;;6.33;2.93;;;9.90;72.70;;;;;;4998316;28;20454;-49
2021/04/24 21:39:24;;;;;;;10.67;4.03;;;9.90;73.40;;;;;;5005325;28;20477;-50
2021/04/24 21:41:51;;;;;;;19.17;9.67;;;9.80;73.40;;;;;;5003705;28;20477;-48
2021/04/24 21:44:20;;;;;;;19.87;10.43;;;9.70;73.80;;;;;;4993535;28;20919;-50
2021/04/24 21:46:47;;;;;;;6.97;4.17;;;9.70;73.80;;;;;;4988218;28;20787;-49
2021/04/24 21:49:13;;;;;;;7.10;3.27;;;9.60;73.90;;;;;;4983097;28;20449;-50
2021/04/24 21:51:40;;;;;;;14.07;3.67;;;9.60;73.80;;;;;;4991845;28;20442;-46
2021/04/24 21:54:07;;;;;;;6.43;3.10;;;9.60;73.90;;;;;;4997226;28;20442;-56
2021/04/24 21:56:33;;;;;;;4.40;3.50;;;9.60;72.90;;;;;;4995373;28;20490;-49
2021/04/24 21:58:59;;;;;;;7.37;4.20;;;9.50;72.50;;;;;;5003680;28;20454;-48
2021/04/24 22:01:26;;;;;;;5.20;3.17;;;9.40;71.90;;;;;;5003185;28;20496;-50
2021/04/24 22:03:56;;;;;;;5.63;3.60;;;9.40;71.50;;;;;;5002583;28;20450;-53
2021/04/24 22:06:23;;;;;;;4.97;2.80;;;9.30;71.20;;;;;;4999895;28;20496;-50
2021/04/24 22:08:49;;;;;;;4.67;2.47;;;9.30;70.00;;;;;;4996566;28;20461;-52
2021/04/24 22:11:16;;;;;;;4.57;2.30;;;9.20;68.10;;;;;;4995369;28;20803;-51
2021/04/24 22:13:42;;;;;;;4.17;2.27;;;9.10;67.10;;;;;;4989707;28;20451;-46
2021/04/24 22:16:11;;;;;;;5.20;3.13;;;9.10;66.00;;;;;;4985049;28;20483;-50
2021/04/24 22:18:39;;;;;;;5.30;2.33;;;9.00;65.50;;;;;;4998715;28;20497;-49
2021/04/24 22:21:06;;;;;;;5.13;2.13;;;9.00;65.20;;;;;;4998929;28;20819;-54
2021/04/24 22:23:32;;;;;;;4.97;2.87;;;9.00;64.40;;;;;;4998599;28;20539;-47
2021/04/24 22:25:59;;;;;;;3.33;2.13;;;8.90;64.00;;;;;;4999681;28;20456;-52
2021/04/24 22:28:26;;;;;;;4.50;1.90;;;8.90;64.40;;;;;;4999891;28;20524;-52
2021/04/24 22:30:52;;;;;;;4.47;1.80;;;8.80;64.10;;;;;;4999129;28;20442;-53
2021/04/24 22:33:18;;;;;;;5.63;2.80;;;8.80;64.00;;;;;;4998782;28;20579;-53
2021/04/24 22:35:45;;;;;;;2.70;1.97;;;8.80;64.20;;;;;;4998487;28;20517;-50
2021/04/24 22:38:12;;;;;;;5.63;2.27;;;8.80;64.00;;;;;;4995149;28;20541;-53
2021/04/24 22:40:38;;;;;;;4.20;2.50;;;8.90;63.80;;;;;;4986632;28;20481;-51
2021/04/24 22:43:04;;;;;;;7.33;1.73;;;8.80;63.80;;;;;;4986623;28;20454;-50
2021/04/24 22:45:33;;;;;;;2.03;1.80;;;8.80;63.80;;;;;;4989459;28;20451;-51
2021/04/24 22:48:00;;;;;;;3.10;1.90;;;8.70;64.20;;;;;;4984037;28;20457;-52
2021/04/24 22:50:28;;;;;;;3.40;2.20;;;8.80;64.30;;;;;;4987988;28;20513;-54
2021/04/24 22:52:55;;;;;;;6.40;2.30;;;8.80;64.00;;;;;;4979283;28;20567;-51
2021/04/24 22:55:24;;;;;;;3.83;2.20;;;8.80;64.10;;;;;;4978847;28;20573;-49
2021/04/24 22:57:51;;;;;;;6.87;2.80;;;8.70;64.20;;;;;;4983132;28;20899;-48
2021/04/24 23:00:20;;;;;;;3.50;2.20;;;8.80;64.00;;;;;;4985810;28;20439;-53
2021/04/24 23:02:47;;;;;;;4.20;2.83;;;8.70;64.40;;;;;;4985634;28;20442;-51
2021/04/24 23:05:14;;;;;;;3.70;2.17;;;8.60;64.90;;;;;;4988816;28;20899;-51
2021/04/24 23:07:40;;;;;;;4.60;2.43;;;8.50;65.10;;;;;;4992729;28;20441;-50
2021/04/24 23:10:07;;;;;;;4.93;1.90;;;8.50;65.40;;;;;;4998318;28;20995;-53
2021/04/24 23:12:35;;;;;;;4.97;2.03;;;8.40;65.70;;;;;;4998298;28;20445;-51
2021/04/24 23:15:03;;;;;;;3.93;1.97;;;8.40;65.60;;;;;;4989774;28;20513;-51
2021/04/24 23:17:29;;;;;;;6.33;2.40;;;8.40;66.40;;;;;;4988829;28;20465;-51
2021/04/24 23:19:57;;;;;;;5.00;1.80;;;8.40;66.20;;;;;;4993486;28;20450;-51
2021/04/24 23:22:24;;;;;;;3.90;2.10;;;8.30;66.70;;;;;;4992758;28;20474;-50
2021/04/24 23:24:51;;;;;;;3.70;2.30;;;8.30;67.20;;;;;;4987995;28;20908;-50
